KJAS

Jasper County-Bell Field Airport

Jasper, Texas, USA
METAR KJAS 191515Z AUTO 23007KT 10SM BKN018 BKN026 29/26 A2998 RMK AO2 T02930255
Observed Flight Rules
Aug-19 @ 15:15 UTC (22 minutes ago) Marginal Visual Flight Rules
Wind Visibility Clouds
230° at 7 knots 10 miles
  • Broken at 1,800' AGL
  • Broken at 2,600' AGL
Temperatures Readings
Current 29°C / 84°F
Dewpoint 26°C / 79°F
Humidity 84%
Altimeter 29.98" Hg
Pressure 1015 hPa
Elevation 65
METAR KJAS 191515Z AUTO 23007KT 10SM BKN018 BKN026 29/26 A2998 RMK AO2 T02930255
Observed Flight Rules
Aug-19 @ 15:15 UTC
(22 minutes ago)
MVFR
Wind Visibility
230° at 7 knots 10 miles
Clouds
  • Broken at 1,800' AGL
  • Broken at 2,600' AGL
Temperature Dewpoint
29°C / 84°F 26°C / 79°F
Humidity Altimeter Pressure
84% 29.98" Hg 1015 hPa